createdAt,value
2022-10-03T00:01:32.783Z,96941.91
2022-10-03T00:04:15.262Z,96946.53
2022-10-03T00:06:52.374Z,96949.53
2022-10-03T00:09:36.776Z,96947.22
2022-10-03T00:12:15.445Z,96951.84
2022-10-03T00:14:54.751Z,96959.16
2022-10-03T00:17:32.602Z,96956.66
2022-10-03T00:20:16.098Z,96958.16
2022-10-03T00:22:54.789Z,96956.50
2022-10-03T00:25:35.024Z,96958.34
2022-10-03T00:28:19.765Z,96954.34
2022-10-03T00:31:07.481Z,96952.53
2022-10-03T00:33:45.165Z,96953.19
2022-10-03T00:36:21.511Z,96946.38
2022-10-03T00:39:08.360Z,96948.19
2022-10-03T00:41:55.453Z,96953.19
2022-10-03T00:44:55.775Z,96953.53
2022-10-03T00:47:47.833Z,96949.53
2022-10-03T00:50:47.750Z,96952.38
2022-10-03T00:53:34.335Z,96955.53
2022-10-03T00:56:16.968Z,96962.63
2022-10-03T00:59:09.540Z,96969.78
2022-10-03T01:01:45.477Z,96962.81
2022-10-03T01:04:46.573Z,96969.09
2022-10-03T01:07:33.247Z,96963.28
2022-10-03T01:10:20.115Z,96962.47
2022-10-03T01:13:04.888Z,96959.00
2022-10-03T01:15:45.079Z,96968.59
2022-10-03T01:18:27.432Z,96962.47
2022-10-03T01:21:04.579Z,96975.59
2022-10-03T01:23:55.140Z,96968.13
2022-10-03T01:26:50.498Z,96969.28
2022-10-03T01:29:43.777Z,96974.94
2022-10-03T01:32:18.780Z,96979.91
2022-10-03T01:34:55.193Z,96966.28
2022-10-03T01:37:29.804Z,96977.41
2022-10-03T01:40:04.688Z,96976.41
2022-10-03T01:42:41.002Z,96983.88
2022-10-03T01:45:17.937Z,96987.88
2022-10-03T01:47:51.562Z,96980.56
2022-10-03T01:50:29.452Z,96992.00
2022-10-03T01:53:05.171Z,96991.00
2022-10-03T01:55:42.676Z,96991.84
2022-10-03T01:58:20.549Z,96992.66
2022-10-03T02:00:59.210Z,96998.63
2022-10-03T02:03:32.176Z,97006.75
2022-10-03T02:06:10.961Z,97009.94
2022-10-03T02:08:52.955Z,97005.13
2022-10-03T02:11:33.370Z,97019.06
2022-10-03T02:14:23.381Z,97025.06
2022-10-03T02:17:00.397Z,97022.88
2022-10-03T02:19:33.140Z,97018.06
2022-10-03T02:22:02.984Z,97024.56
2022-10-03T02:24:44.766Z,97025.84
2022-10-03T02:27:38.833Z,97031.31
2022-10-03T02:30:19.879Z,97029.50
2022-10-03T02:33:18.727Z,97033.66
2022-10-03T02:36:21.055Z,97033.16
2022-10-03T02:39:33.759Z,97042.09
2022-10-03T02:42:32.656Z,97052.41
2022-10-03T02:45:42.659Z,97052.06
2022-10-03T02:48:49.952Z,97046.75
2022-10-03T02:51:44.321Z,97050.41
2022-10-03T02:54:45.946Z,97048.75
2022-10-03T02:57:42.467Z,97057.50
2022-10-03T03:00:15.162Z,97057.19
2022-10-03T03:03:12.138Z,97059.84
2022-10-03T03:06:25.549Z,97068.63
2022-10-03T03:09:10.519Z,97071.41
2022-10-03T03:12:40.451Z,97065.44
2022-10-03T03:15:44.998Z,97074.53
2022-10-03T03:18:23.669Z,97076.19
2022-10-03T03:21:07.122Z,97073.53
2022-10-03T03:24:12.623Z,97084.66
2022-10-03T03:27:05.245Z,97086.00
2022-10-03T03:29:43.906Z,97087.47
2022-10-03T03:32:20.273Z,97090.81
2022-10-03T03:35:00.569Z,97095.78
2022-10-03T03:37:38.174Z,97091.16
2022-10-03T03:40:19.941Z,97098.75
2022-10-03T03:43:16.393Z,97094.25
2022-10-03T03:45:56.629Z,97098.06
2022-10-03T03:48:42.685Z,97112.63
2022-10-03T03:51:23.514Z,97109.81
2022-10-03T03:54:12.284Z,97112.97
2022-10-03T03:57:01.800Z,97114.66
2022-10-03T03:59:48.101Z,97115.66
2022-10-03T04:02:32.153Z,97113.06
2022-10-03T04:05:14.078Z,97114.53
2022-10-03T04:07:53.663Z,97114.34
2022-10-03T04:10:38.340Z,97117.00
2022-10-03T04:13:32.077Z,97119.19
2022-10-03T04:16:41.818Z,97118.69
2022-10-03T04:19:17.417Z,97114.06
2022-10-03T04:22:05.298Z,97113.22
2022-10-03T04:24:55.166Z,97110.72
2022-10-03T04:27:39.413Z,97114.41
2022-10-03T04:30:14.681Z,97120.50
2022-10-03T04:33:05.527Z,97121.81
2022-10-03T04:36:13.269Z,97117.31
2022-10-03T04:38:51.054Z,97112.97
2022-10-03T04:41:30.006Z,97118.94
2022-10-03T04:44:12.003Z,97115.09
2022-10-03T04:46:49.283Z,97116.25
2022-10-03T04:49:24.343Z,97119.41
2022-10-03T04:51:59.068Z,97121.22
2022-10-03T04:54:40.988Z,97124.72
2022-10-03T04:57:23.982Z,97123.88
2022-10-03T05:00:00.341Z,97119.06
2022-10-03T05:02:49.081Z,97112.47
2022-10-03T05:05:51.545Z,97121.09
2022-10-03T05:08:36.504Z,97114.59
2022-10-03T05:11:21.639Z,97111.13
2022-10-03T05:14:01.002Z,97113.47
2022-10-03T05:16:40.388Z,97112.47
2022-10-03T05:19:51.609Z,97126.56
2022-10-03T05:22:33.011Z,97129.53
2022-10-03T05:25:17.803Z,97135.66
2022-10-03T05:27:53.195Z,97128.03
2022-10-03T05:30:37.463Z,97129.69
2022-10-03T05:33:14.357Z,97133.50
2022-10-03T05:35:56.722Z,97145.75
2022-10-03T05:39:03.968Z,97140.81
2022-10-03T05:41:35.630Z,97152.09
2022-10-03T05:44:10.872Z,97143.84
2022-10-03T05:46:59.055Z,97148.94
2022-10-03T05:49:50.777Z,97146.28
2022-10-03T05:52:48.656Z,97150.09
2022-10-03T05:55:44.741Z,97158.72
2022-10-03T05:58:32.561Z,97160.69
2022-10-03T06:01:27.602Z,97158.97
2022-10-03T06:04:15.837Z,97166.56
2022-10-03T06:06:53.288Z,97163.53
2022-10-03T06:09:43.776Z,97175.13
2022-10-03T06:12:18.661Z,97171.34
2022-10-03T06:15:21.144Z,97179.69
2022-10-03T06:17:58.449Z,97178.75
2022-10-03T06:20:56.705Z,97180.59
2022-10-03T06:24:06.583Z,97178.63
2022-10-03T06:27:07.414Z,97182.63
2022-10-03T06:30:16.359Z,97187.63
2022-10-03T06:33:19.438Z,97191.25
2022-10-03T06:36:23.103Z,97189.13
2022-10-03T06:39:55.534Z,97197.22
2022-10-03T06:43:11.314Z,97206.19
2022-10-03T06:46:16.086Z,97202.00
2022-10-03T06:49:23.039Z,97209.97
2022-10-03T06:52:07.335Z,97208.53
2022-10-03T06:55:21.666Z,97210.91
2022-10-03T06:58:17.261Z,97204.63
2022-10-03T07:01:02.391Z,97204.78
2022-10-03T07:04:06.654Z,97211.13
2022-10-03T07:07:03.191Z,97205.84
2022-10-03T07:10:17.165Z,97212.66
2022-10-03T07:13:15.353Z,97210.06
2022-10-03T07:16:24.091Z,97215.72
2022-10-03T07:19:24.128Z,97220.03
2022-10-03T07:22:23.611Z,97228.31
2022-10-03T07:25:26.795Z,97225.19
2022-10-03T07:28:22.853Z,97221.06
2022-10-03T07:31:03.931Z,97223.38
2022-10-03T07:33:51.072Z,97228.19
2022-10-03T07:37:13.576Z,97228.25
2022-10-03T07:40:14.592Z,97234.69
2022-10-03T07:43:10.170Z,97233.72
2022-10-03T07:45:43.021Z,97240.69
2022-10-03T07:48:43.516Z,97235.56
2022-10-03T07:51:19.995Z,97232.25
2022-10-03T07:54:42.238Z,97232.09
2022-10-03T07:57:31.956Z,97234.91
2022-10-03T08:00:27.305Z,97253.72
2022-10-03T08:03:37.376Z,97244.41
2022-10-03T08:06:26.447Z,97247.56
2022-10-03T08:09:35.590Z,97242.59
2022-10-03T08:12:32.617Z,97247.06
2022-10-03T08:15:11.238Z,97246.72
2022-10-03T08:18:17.640Z,97239.59
2022-10-03T08:20:56.444Z,97239.59
2022-10-03T08:23:50.649Z,97234.13
2022-10-03T08:26:36.743Z,97240.09
2022-10-03T08:29:26.653Z,97235.78
2022-10-03T08:32:39.901Z,97234.19
2022-10-03T08:35:39.716Z,97242.81
2022-10-03T08:38:46.174Z,97233.88
2022-10-03T08:41:58.978Z,97241.81
2022-10-03T08:45:08.609Z,97245.50
2022-10-03T08:48:08.770Z,97254.78
2022-10-03T08:50:50.887Z,97247.34
2022-10-03T08:54:00.537Z,97251.63
2022-10-03T08:56:46.070Z,97255.81
2022-10-03T08:59:56.494Z,97254.97
2022-10-03T09:07:05.142Z,97252.81
2022-10-03T09:10:16.196Z,97249.47
2022-10-03T09:13:26.659Z,97243.00
2022-10-03T09:16:29.161Z,97254.31
2022-10-03T09:19:20.378Z,97250.81
2022-10-03T09:22:27.798Z,97247.31
2022-10-03T09:25:15.713Z,97248.16
2022-10-03T09:28:25.540Z,97253.31
2022-10-03T09:31:06.309Z,97254.47
2022-10-03T09:34:03.976Z,97253.78
2022-10-03T09:37:04.540Z,97248.91
2022-10-03T09:40:11.644Z,97251.03
2022-10-03T09:43:14.880Z,97234.72
2022-10-03T09:46:12.013Z,97244.47
2022-10-03T09:49:09.286Z,97243.13
2022-10-03T09:51:53.990Z,97246.00
2022-10-03T09:54:55.432Z,97237.34
2022-10-03T09:57:47.041Z,97248.34
2022-10-03T10:00:22.354Z,97242.03
2022-10-03T10:03:23.803Z,97242.84
2022-10-03T10:06:24.988Z,97238.22
2022-10-03T10:09:40.816Z,97242.84
2022-10-03T10:12:55.636Z,97241.03
2022-10-03T10:16:08.440Z,97226.91
2022-10-03T10:19:10.798Z,97230.06
2022-10-03T10:21:59.464Z,97223.16
2022-10-03T10:25:09.317Z,97223.38
2022-10-03T10:28:05.936Z,97218.09
2022-10-03T10:31:03.708Z,97216.31
2022-10-03T10:34:16.426Z,97210.78
2022-10-03T10:37:19.217Z,97212.44
2022-10-03T10:40:32.923Z,97211.56
2022-10-03T10:43:41.914Z,97215.13
2022-10-03T10:46:49.016Z,97210.91
2022-10-03T10:50:08.049Z,97212.69
2022-10-03T10:53:09.913Z,97205.63
2022-10-03T10:56:13.321Z,97215.13
2022-10-03T10:59:32.471Z,97208.00
2022-10-03T11:02:42.705Z,97209.28
2022-10-03T11:05:47.634Z,97213.56
2022-10-03T11:08:51.592Z,97200.50
2022-10-03T11:12:09.876Z,97208.09
2022-10-03T11:15:11.510Z,97204.31
2022-10-03T11:18:05.141Z,97204.03
2022-10-03T11:21:07.036Z,97211.06
2022-10-03T11:24:15.306Z,97207.03
2022-10-03T11:27:28.587Z,97205.66
2022-10-03T11:30:19.408Z,97211.91
2022-10-03T11:33:26.628Z,97208.88
2022-10-03T11:36:28.916Z,97198.56
2022-10-03T11:39:05.717Z,97202.25
2022-10-03T11:41:47.733Z,97213.84
2022-10-03T11:44:23.446Z,97203.38
2022-10-03T11:47:13.697Z,97207.59
2022-10-03T11:50:01.704Z,97198.09
2022-10-03T11:52:34.299Z,97198.69
2022-10-03T11:55:26.515Z,97193.00
2022-10-03T11:58:14.478Z,97193.03
2022-10-03T12:00:47.686Z,97182.47
2022-10-03T12:03:27.014Z,97186.31
2022-10-03T12:06:13.689Z,97188.72
2022-10-03T12:08:56.243Z,97195.31
2022-10-03T12:11:28.383Z,97185.75
2022-10-03T12:14:17.612Z,97179.94
2022-10-03T12:17:07.417Z,97184.97
2022-10-03T12:19:46.926Z,97183.63
2022-10-03T12:22:30.642Z,97181.06
2022-10-03T12:25:07.126Z,97178.25
2022-10-03T12:27:51.829Z,97175.63
2022-10-03T12:30:21.896Z,97178.31
2022-10-03T12:33:08.205Z,97176.47
2022-10-03T12:35:46.118Z,97181.44
2022-10-03T12:38:25.833Z,97179.41
2022-10-03T12:41:06.868Z,97177.22
2022-10-03T12:43:49.075Z,97165.19
2022-10-03T12:46:27.141Z,97167.66
2022-10-03T12:49:01.180Z,97165.19
2022-10-03T12:51:45.032Z,97163.63
2022-10-03T12:54:26.855Z,97168.38
2022-10-03T12:57:20.013Z,97172.28
2022-10-03T12:59:55.524Z,97160.16
2022-10-03T13:02:33.457Z,97160.03
2022-10-03T13:05:33.253Z,97155.94
2022-10-03T13:08:07.644Z,97163.06
2022-10-03T13:10:42.826Z,97149.84
2022-10-03T13:13:28.890Z,97154.75
2022-10-03T13:16:14.548Z,97155.31
2022-10-03T13:18:57.251Z,97157.19
2022-10-03T13:21:45.863Z,97158.56
2022-10-03T13:24:32.354Z,97158.75
2022-10-03T13:27:30.472Z,97165.97
2022-10-03T13:30:06.416Z,97156.41
2022-10-03T13:32:37.833Z,97157.41
2022-10-03T13:35:38.082Z,97150.88
2022-10-03T13:38:27.298Z,97156.72
2022-10-03T13:41:08.053Z,97153.56
2022-10-03T13:43:40.495Z,97152.19
2022-10-03T13:46:15.765Z,97150.88
2022-10-03T13:48:55.064Z,97148.88
2022-10-03T13:51:33.025Z,97151.34
2022-10-03T13:54:07.939Z,97144.78
2022-10-03T13:56:51.897Z,97143.19
2022-10-03T13:59:39.315Z,97148.16
2022-10-03T14:02:27.636Z,97142.19
2022-10-03T14:05:20.168Z,97149.91
2022-10-03T14:08:00.126Z,97139.00
2022-10-03T14:11:00.898Z,97138.63
2022-10-03T14:13:43.649Z,97132.25
2022-10-03T14:16:20.418Z,97131.00
2022-10-03T14:18:57.296Z,97125.13
2022-10-03T14:21:38.637Z,97128.72
2022-10-03T14:24:21.397Z,97125.72
2022-10-03T14:26:56.481Z,97124.06
2022-10-03T14:29:38.635Z,97130.94
2022-10-03T14:32:42.471Z,97118.25
2022-10-03T14:35:13.798Z,97121.97
2022-10-03T14:37:47.570Z,97117.63
2022-10-03T14:40:23.852Z,97117.44
2022-10-03T14:43:07.505Z,97117.63
2022-10-03T14:45:44.846Z,97114.13
2022-10-03T14:48:18.854Z,97120.28
2022-10-03T14:50:52.338Z,97117.69
2022-10-03T14:53:25.468Z,97107.06
2022-10-03T14:56:00.811Z,97108.09
2022-10-03T14:58:33.542Z,97113.31
2022-10-03T15:01:16.084Z,97111.94
2022-10-03T15:03:53.500Z,97107.31
2022-10-03T15:06:34.195Z,97109.03
2022-10-03T15:09:11.692Z,97108.56
2022-10-03T15:11:49.040Z,97100.28
2022-10-03T15:14:18.121Z,97106.38
2022-10-03T15:16:55.233Z,97103.69
2022-10-03T15:19:33.893Z,97110.34
2022-10-03T15:22:13.754Z,97105.34
2022-10-03T15:24:43.035Z,97102.69
2022-10-03T15:27:21.745Z,97097.72
2022-10-03T15:29:55.444Z,97101.16
2022-10-03T15:32:35.560Z,97102.00
2022-10-03T15:35:04.930Z,97109.69
2022-10-03T15:37:41.798Z,97095.69
2022-10-03T15:40:23.368Z,97101.03
2022-10-03T15:43:07.988Z,97110.53
2022-10-03T15:45:38.812Z,97113.50
2022-10-03T15:48:14.477Z,97103.28
2022-10-03T15:50:45.907Z,97115.72
2022-10-03T15:53:37.580Z,97112.81
2022-10-03T15:56:12.298Z,97105.84
2022-10-03T15:58:49.538Z,97105.03
2022-10-03T16:01:22.580Z,97097.94
2022-10-03T16:03:55.337Z,97106.94
2022-10-03T16:06:32.269Z,97108.44
2022-10-03T16:09:09.789Z,97102.63
2022-10-03T16:11:48.793Z,97098.31
2022-10-03T16:14:24.882Z,97100.13
2022-10-03T16:16:58.023Z,97095.00
2022-10-03T16:19:31.430Z,97103.19
2022-10-03T16:22:18.582Z,97099.06
2022-10-03T16:24:59.382Z,97109.28
2022-10-03T16:27:31.235Z,97113.66
2022-10-03T16:30:19.079Z,97117.69
2022-10-03T16:32:54.158Z,97111.06
2022-10-03T16:35:34.946Z,97117.78
2022-10-03T16:38:09.751Z,97115.38
2022-10-03T16:40:38.950Z,97120.94
2022-10-03T16:43:11.611Z,97115.50
2022-10-03T16:45:45.674Z,97113.22
2022-10-03T16:48:39.146Z,97115.56
2022-10-03T16:51:18.278Z,97118.78
2022-10-03T16:53:49.256Z,97118.31
2022-10-03T16:56:20.690Z,97116.16
2022-10-03T16:58:53.534Z,97120.19
2022-10-03T17:01:40.805Z,97118.56
2022-10-03T17:04:21.990Z,97117.06
2022-10-03T17:06:54.969Z,97121.91
2022-10-03T17:09:34.192Z,97128.25
2022-10-03T17:12:05.564Z,97135.94
2022-10-03T17:14:39.042Z,97127.47
2022-10-03T17:17:17.165Z,97124.16
2022-10-03T17:19:51.185Z,97132.69
2022-10-03T17:22:23.948Z,97147.38
2022-10-03T17:24:56.089Z,97137.72
2022-10-03T17:27:31.198Z,97144.06
2022-10-03T17:30:04.338Z,97143.41
2022-10-03T17:32:42.128Z,97138.28
2022-10-03T17:35:16.578Z,97142.31
2022-10-03T17:38:37.052Z,97140.16
2022-10-03T17:41:15.166Z,97141.50
2022-10-03T17:43:48.713Z,97145.84
2022-10-03T17:46:24.554Z,97155.22
2022-10-03T17:49:02.617Z,97150.59
2022-10-03T17:51:36.681Z,97146.44
2022-10-03T17:54:15.122Z,97154.78
2022-10-03T17:56:49.401Z,97161.94
2022-10-03T17:59:28.067Z,97162.78
2022-10-03T18:02:02.026Z,97156.44
2022-10-03T18:04:34.901Z,97158.28
2022-10-03T18:07:08.038Z,97165.94
2022-10-03T18:09:47.817Z,97161.84
2022-10-03T18:12:23.476Z,97165.38
2022-10-03T18:15:35.627Z,97158.88
2022-10-03T18:18:21.264Z,97157.75
2022-10-03T18:20:52.063Z,97157.72
2022-10-03T18:23:53.232Z,97160.56
2022-10-03T18:26:28.154Z,97168.03
2022-10-03T18:29:11.814Z,97166.72
2022-10-03T18:31:45.411Z,97165.38
2022-10-03T18:34:21.045Z,97168.19
2022-10-03T18:36:52.770Z,97158.22
2022-10-03T18:39:25.388Z,97161.56
2022-10-03T18:41:59.455Z,97162.72
2022-10-03T18:44:30.596Z,97152.25
2022-10-03T18:47:13.195Z,97154.09
2022-10-03T18:49:47.968Z,97153.41
2022-10-03T18:52:21.969Z,97154.75
2022-10-03T18:54:59.381Z,97155.41
2022-10-03T18:57:37.364Z,97160.25
2022-10-03T19:00:09.284Z,97154.25
2022-10-03T19:02:44.014Z,97162.72
2022-10-03T19:05:19.136Z,97159.41
2022-10-03T19:07:55.019Z,97162.72
2022-10-03T19:10:35.023Z,97161.56
2022-10-03T19:13:16.600Z,97160.22
2022-10-03T19:16:12.788Z,97156.56
2022-10-03T19:18:44.490Z,97156.75
2022-10-03T19:21:20.094Z,97163.06
2022-10-03T19:23:53.165Z,97162.56
2022-10-03T19:26:26.888Z,97151.56
2022-10-03T19:29:05.171Z,97148.75
2022-10-03T19:31:40.468Z,97153.75
2022-10-03T19:34:16.969Z,97151.09
2022-10-03T19:36:49.459Z,97161.22
2022-10-03T19:39:19.508Z,97161.72
2022-10-03T19:41:53.124Z,97156.09
2022-10-03T19:44:26.962Z,97158.75
2022-10-03T19:47:05.417Z,97150.25
2022-10-03T19:49:46.459Z,97148.47
2022-10-03T19:52:22.056Z,97149.44
2022-10-03T19:54:57.819Z,97145.47
2022-10-03T19:57:31.134Z,97145.63
2022-10-03T20:00:04.587Z,97141.97
2022-10-03T20:02:33.790Z,97141.81
2022-10-03T20:05:03.736Z,97136.50
2022-10-03T20:07:46.568Z,97133.50
2022-10-03T20:10:34.095Z,97138.81
2022-10-03T20:13:03.981Z,97140.81
2022-10-03T20:15:43.897Z,97138.16
2022-10-03T20:18:22.566Z,97138.94
2022-10-03T20:20:54.361Z,97134.47
2022-10-03T20:23:24.582Z,97134.97
2022-10-03T20:26:02.056Z,97136.94
2022-10-03T20:28:51.220Z,97140.59
2022-10-03T20:31:27.128Z,97136.78
2022-10-03T20:33:57.962Z,97133.28
2022-10-03T20:36:29.543Z,97135.78
2022-10-03T20:39:05.763Z,97134.78
2022-10-03T20:41:48.660Z,97133.44
2022-10-03T20:44:28.275Z,97134.44
2022-10-03T20:47:05.308Z,97131.81
2022-10-03T20:49:38.459Z,97138.09
2022-10-03T20:52:09.076Z,97141.56
2022-10-03T20:54:48.427Z,97139.63
2022-10-03T20:57:19.829Z,97137.94
2022-10-03T20:59:50.438Z,97132.97
2022-10-03T21:02:30.521Z,97134.28
2022-10-03T21:05:03.989Z,97122.50
2022-10-03T21:07:39.613Z,97128.31
2022-10-03T21:10:19.352Z,97123.16
2022-10-03T21:12:50.420Z,97124.81
2022-10-03T21:15:30.139Z,97122.81
2022-10-03T21:18:00.455Z,97126.44
2022-10-03T21:20:35.737Z,97122.47
2022-10-03T21:23:14.275Z,97128.81
2022-10-03T21:25:45.148Z,97121.50
2022-10-03T21:28:26.564Z,97122.50
2022-10-03T21:31:16.335Z,97120.81
2022-10-03T21:33:54.873Z,97126.31
2022-10-03T21:36:30.599Z,97122.31
2022-10-03T21:39:09.373Z,97113.47
2022-10-03T21:41:46.960Z,97118.47
2022-10-03T21:44:29.105Z,97114.28
2022-10-03T21:47:06.175Z,97114.97
2022-10-03T21:49:48.041Z,97111.66
2022-10-03T21:52:32.393Z,97110.66
2022-10-03T21:55:16.941Z,97102.34
2022-10-03T21:57:55.410Z,97105.97
2022-10-03T22:00:28.910Z,97103.63
2022-10-03T22:03:06.309Z,97103.56
2022-10-03T22:05:46.588Z,97108.19
2022-10-03T22:08:21.482Z,97095.22
2022-10-03T22:11:04.554Z,97103.69
2022-10-03T22:13:38.171Z,97097.97
2022-10-03T22:16:15.172Z,97093.09
2022-10-03T22:19:09.818Z,97103.63
2022-10-03T22:21:46.432Z,97098.28
2022-10-03T22:24:23.451Z,97093.63
2022-10-03T22:27:00.383Z,97092.81
2022-10-03T22:29:36.234Z,97089.00
2022-10-03T22:32:13.232Z,97081.88
2022-10-03T22:34:50.228Z,97080.22
2022-10-03T22:37:20.025Z,97079.56
2022-10-03T22:39:48.472Z,97077.06
2022-10-03T22:42:17.941Z,97066.44
2022-10-03T22:44:51.212Z,97067.75
2022-10-03T22:47:23.767Z,97063.75
2022-10-03T22:49:58.869Z,97058.25
2022-10-03T22:52:32.987Z,97056.59
2022-10-03T22:55:03.802Z,97055.75
2022-10-03T22:57:36.102Z,97062.34
2022-10-03T23:00:08.434Z,97054.88
2022-10-03T23:02:42.703Z,97053.66
2022-10-03T23:05:17.375Z,97050.50
2022-10-03T23:08:00.599Z,97035.59
2022-10-03T23:10:42.717Z,97043.19
2022-10-03T23:13:17.644Z,97047.41
2022-10-03T23:15:51.132Z,97043.41
2022-10-03T23:18:36.903Z,97038.28
2022-10-03T23:21:07.940Z,97041.06
2022-10-03T23:23:51.177Z,97032.69
2022-10-03T23:26:38.093Z,97037.22
2022-10-03T23:29:08.548Z,97031.56
2022-10-03T23:31:55.658Z,97030.81
2022-10-03T23:34:47.156Z,97035.81
2022-10-03T23:37:38.441Z,97037.47
2022-10-03T23:40:42.094Z,97033.63
2022-10-03T23:43:34.707Z,97034.59
2022-10-03T23:46:06.371Z,97041.84
2022-10-03T23:48:44.394Z,97042.59
2022-10-03T23:51:15.954Z,97041.94
2022-10-03T23:53:47.551Z,97037.75
2022-10-03T23:56:31.738Z,97032.78
2022-10-03T23:59:21.349Z,97037.34
